sensor_id;sensor_type;location;lat;lon;timestamp;pressure;altitude;pressure_sealevel;temperature;humidity
73936;BME280;62287;50.858;0.252;2023-05-12T00:00:25;101668.92;;;14.89;39.48
73936;BME280;62287;50.858;0.252;2023-05-12T00:00:56;101668.30;;;14.72;39.61
73936;BME280;62287;50.858;0.252;2023-05-12T00:01:27;101666.39;;;15.27;39.45
73936;BME280;62287;50.858;0.252;2023-05-12T00:01:58;101667.52;;;15.21;39.58
73936;BME280;62287;50.858;0.252;2023-05-12T00:02:29;101665.63;;;15.57;39.24
73936;BME280;62287;50.858;0.252;2023-05-12T00:03:00;101664.89;;;15.55;39.25
73936;BME280;62287;50.858;0.252;2023-05-12T00:03:31;101665.13;;;15.44;39.16
73936;BME280;62287;50.858;0.252;2023-05-12T00:04:01;101666.75;;;15.04;39.22
73936;BME280;62287;50.858;0.252;2023-05-12T00:04:32;101667.55;;;15.15;39.39
73936;BME280;62287;50.858;0.252;2023-05-12T00:05:04;101666.66;;;14.86;39.23
73936;BME280;62287;50.858;0.252;2023-05-12T00:05:36;101668.34;;;14.56;39.50
73936;BME280;62287;50.858;0.252;2023-05-12T00:06:07;101668.15;;;15.66;39.38
73936;BME280;62287;50.858;0.252;2023-05-12T00:06:38;101668.61;;;15.54;39.31
73936;BME280;62287;50.858;0.252;2023-05-12T00:07:09;101671.08;;;15.46;39.35
73936;BME280;62287;50.858;0.252;2023-05-12T00:07:40;101670.78;;;14.38;39.66
73936;BME280;62287;50.858;0.252;2023-05-12T00:08:11;101668.91;;;15.11;39.66
73936;BME280;62287;50.858;0.252;2023-05-12T00:08:42;101669.91;;;15.12;39.71
73936;BME280;62287;50.858;0.252;2023-05-12T00:09:13;101670.17;;;14.84;39.80
73936;BME280;62287;50.858;0.252;2023-05-12T00:09:44;101671.84;;;15.26;39.77
73936;BME280;62287;50.858;0.252;2023-05-12T00:10:16;101670.67;;;14.68;39.85
73936;BME280;62287;50.858;0.252;2023-05-12T00:10:47;101672.65;;;15.48;39.61
73936;BME280;62287;50.858;0.252;2023-05-12T00:11:18;101671.70;;;15.55;39.54
73936;BME280;62287;50.858;0.252;2023-05-12T00:11:49;101672.12;;;15.02;39.57
73936;BME280;62287;50.858;0.252;2023-05-12T00:12:20;101669.07;;;15.57;39.14
73936;BME280;62287;50.858;0.252;2023-05-12T00:12:51;101670.17;;;15.71;38.93
73936;BME280;62287;50.858;0.252;2023-05-12T00:13:22;101669.51;;;15.61;38.82
73936;BME280;62287;50.858;0.252;2023-05-12T00:13:53;101673.25;;;14.91;39.25
73936;BME280;62287;50.858;0.252;2023-05-12T00:14:24;101673.04;;;15.25;39.30
73936;BME280;62287;50.858;0.252;2023-05-12T00:14:56;101675.17;;;14.70;39.14
73936;BME280;62287;50.858;0.252;2023-05-12T00:15:28;101674.52;;;14.77;39.56
73936;BME280;62287;50.858;0.252;2023-05-12T00:15:59;101676.48;;;14.54;39.40
73936;BME280;62287;50.858;0.252;2023-05-12T00:16:29;101678.31;;;14.13;39.60
73936;BME280;62287;50.858;0.252;2023-05-12T00:17:02;101676.40;;;13.98;39.79
73936;BME280;62287;50.858;0.252;2023-05-12T00:17:33;101677.50;;;13.91;39.96
73936;BME280;62287;50.858;0.252;2023-05-12T00:18:04;101676.92;;;13.37;40.00
73936;BME280;62287;50.858;0.252;2023-05-12T00:18:36;101677.45;;;13.31;39.99
73936;BME280;62287;50.858;0.252;2023-05-12T00:19:08;101678.21;;;13.73;39.84
73936;BME280;62287;50.858;0.252;2023-05-12T00:19:44;101677.09;;;13.73;39.77
73936;BME280;62287;50.858;0.252;2023-05-12T00:20:15;101678.10;;;13.75;39.60
73936;BME280;62287;50.858;0.252;2023-05-12T00:20:47;101676.67;;;13.56;39.58
73936;BME280;62287;50.858;0.252;2023-05-12T00:21:20;101678.66;;;13.76;39.77
73936;BME280;62287;50.858;0.252;2023-05-12T00:21:51;101679.92;;;13.68;39.83
73936;BME280;62287;50.858;0.252;2023-05-12T00:22:23;101679.59;;;13.94;39.96
73936;BME280;62287;50.858;0.252;2023-05-12T00:22:53;101681.61;;;13.66;40.09
73936;BME280;62287;50.858;0.252;2023-05-12T00:23:24;101683.81;;;13.30;40.09
73936;BME280;62287;50.858;0.252;2023-05-12T00:23:55;101684.16;;;13.55;40.23
73936;BME280;62287;50.858;0.252;2023-05-12T00:24:26;101685.33;;;13.29;40.16
73936;BME280;62287;50.858;0.252;2023-05-12T00:24:57;101687.81;;;13.30;40.52
73936;BME280;62287;50.858;0.252;2023-05-12T00:25:34;101686.68;;;13.24;40.50
73936;BME280;62287;50.858;0.252;2023-05-12T00:26:04;101691.37;;;12.75;40.51
73936;BME280;62287;50.858;0.252;2023-05-12T00:26:36;101690.76;;;12.60;41.02
73936;BME280;62287;50.858;0.252;2023-05-12T00:27:08;101691.94;;;13.36;40.79
73936;BME280;62287;50.858;0.252;2023-05-12T00:27:44;101692.08;;;13.45;40.79
73936;BME280;62287;50.858;0.252;2023-05-12T00:28:16;101692.91;;;13.21;40.93
73936;BME280;62287;50.858;0.252;2023-05-12T00:28:47;101691.81;;;12.78;41.00
73936;BME280;62287;50.858;0.252;2023-05-12T00:29:18;101692.76;;;13.23;40.42
73936;BME280;62287;50.858;0.252;2023-05-12T00:29:49;101692.84;;;13.24;40.79
73936;BME280;62287;50.858;0.252;2023-05-12T00:30:20;101692.28;;;12.93;40.70
73936;BME280;62287;50.858;0.252;2023-05-12T00:30:51;101692.59;;;12.86;40.62
73936;BME280;62287;50.858;0.252;2023-05-12T00:31:22;101692.31;;;13.18;40.57
73936;BME280;62287;50.858;0.252;2023-05-12T00:31:59;101687.52;;;13.80;40.46
73936;BME280;62287;50.858;0.252;2023-05-12T00:32:30;101684.02;;;14.14;40.38
73936;BME280;62287;50.858;0.252;2023-05-12T00:33:01;101685.09;;;13.47;40.38
73936;BME280;62287;50.858;0.252;2023-05-12T00:33:38;101690.98;;;13.58;40.54
73936;BME280;62287;50.858;0.252;2023-05-12T00:34:09;101688.03;;;13.38;40.55
73936;BME280;62287;50.858;0.252;2023-05-12T00:34:40;101684.91;;;12.93;40.64
73936;BME280;62287;50.858;0.252;2023-05-12T00:35:11;101686.73;;;13.35;40.69
73936;BME280;62287;50.858;0.252;2023-05-12T00:35:42;101683.54;;;13.00;40.49
73936;BME280;62287;50.858;0.252;2023-05-12T00:36:13;101686.28;;;13.53;40.72
73936;BME280;62287;50.858;0.252;2023-05-12T00:36:44;101685.34;;;13.29;40.84
73936;BME280;62287;50.858;0.252;2023-05-12T00:37:15;101684.87;;;13.28;40.66
73936;BME280;62287;50.858;0.252;2023-05-12T00:37:46;101684.86;;;13.14;40.42
73936;BME280;62287;50.858;0.252;2023-05-12T00:38:17;101680.03;;;13.87;40.27
73936;BME280;62287;50.858;0.252;2023-05-12T00:38:49;101685.17;;;13.29;40.49
73936;BME280;62287;50.858;0.252;2023-05-12T00:39:20;101685.86;;;13.70;40.45
73936;BME280;62287;50.858;0.252;2023-05-12T00:39:51;101685.50;;;13.07;40.68
73936;BME280;62287;50.858;0.252;2023-05-12T00:40:23;101686.63;;;12.94;40.36
73936;BME280;62287;50.858;0.252;2023-05-12T00:40:55;101686.85;;;13.18;40.83
73936;BME280;62287;50.858;0.252;2023-05-12T00:41:26;101687.64;;;13.86;40.71
73936;BME280;62287;50.858;0.252;2023-05-12T00:41:58;101687.60;;;13.92;40.41
73936;BME280;62287;50.858;0.252;2023-05-12T00:42:32;101687.84;;;13.28;40.36
73936;BME280;62287;50.858;0.252;2023-05-12T00:43:03;101688.76;;;12.86;40.71
73936;BME280;62287;50.858;0.252;2023-05-12T00:43:34;101685.10;;;14.04;40.46
73936;BME280;62287;50.858;0.252;2023-05-12T00:44:05;101684.98;;;14.39;40.45
73936;BME280;62287;50.858;0.252;2023-05-12T00:44:36;101683.68;;;14.20;40.39
73936;BME280;62287;50.858;0.252;2023-05-12T00:45:09;101685.64;;;13.67;40.40
73936;BME280;62287;50.858;0.252;2023-05-12T00:45:41;101685.73;;;13.59;40.48
73936;BME280;62287;50.858;0.252;2023-05-12T00:46:13;101682.29;;;14.33;40.33
73936;BME280;62287;50.858;0.252;2023-05-12T00:46:44;101684.16;;;13.68;40.34
73936;BME280;62287;50.858;0.252;2023-05-12T00:47:15;101685.41;;;14.44;40.13
73936;BME280;62287;50.858;0.252;2023-05-12T00:47:47;101686.58;;;14.30;40.03
73936;BME280;62287;50.858;0.252;2023-05-12T00:48:23;101688.37;;;13.71;39.97
73936;BME280;62287;50.858;0.252;2023-05-12T00:48:54;101689.09;;;14.33;40.09
73936;BME280;62287;50.858;0.252;2023-05-12T00:49:26;101686.69;;;14.55;39.83
73936;BME280;62287;50.858;0.252;2023-05-12T00:49:57;101690.01;;;14.57;39.55
73936;BME280;62287;50.858;0.252;2023-05-12T00:50:29;101691.34;;;13.73;40.04
73936;BME280;62287;50.858;0.252;2023-05-12T00:51:02;101694.04;;;13.00;40.07
73936;BME280;62287;50.858;0.252;2023-05-12T00:51:34;101693.74;;;12.16;40.38
73936;BME280;62287;50.858;0.252;2023-05-12T00:52:05;101691.17;;;12.28;40.90
73936;BME280;62287;50.858;0.252;2023-05-12T00:52:37;101689.59;;;12.52;41.04
73936;BME280;62287;50.858;0.252;2023-05-12T00:53:08;101689.77;;;12.09;41.43
73936;BME280;62287;50.858;0.252;2023-05-12T00:53:40;101690.49;;;13.10;40.79
73936;BME280;62287;50.858;0.252;2023-05-12T00:54:11;101688.99;;;13.46;40.57
73936;BME280;62287;50.858;0.252;2023-05-12T00:54:43;101690.03;;;13.30;40.70
73936;BME280;62287;50.858;0.252;2023-05-12T00:55:14;101689.60;;;13.95;40.51
73936;BME280;62287;50.858;0.252;2023-05-12T00:55:45;101688.07;;;13.57;40.71
73936;BME280;62287;50.858;0.252;2023-05-12T00:56:17;101689.74;;;13.35;40.73
73936;BME280;62287;50.858;0.252;2023-05-12T00:56:49;101688.76;;;13.32;40.52
73936;BME280;62287;50.858;0.252;2023-05-12T00:57:22;101691.16;;;13.64;40.61
73936;BME280;62287;50.858;0.252;2023-05-12T00:57:55;101685.55;;;13.96;40.28
73936;BME280;62287;50.858;0.252;2023-05-12T00:58:26;101690.03;;;13.48;40.74
73936;BME280;62287;50.858;0.252;2023-05-12T00:58:58;101691.17;;;12.95;40.82
73936;BME280;62287;50.858;0.252;2023-05-12T00:59:29;101690.98;;;12.91;41.02
73936;BME280;62287;50.858;0.252;2023-05-12T01:00:01;101692.56;;;12.86;41.17
73936;BME280;62287;50.858;0.252;2023-05-12T01:00:32;101691.58;;;13.00;41.24
73936;BME280;62287;50.858;0.252;2023-05-12T01:01:03;101690.56;;;13.06;41.21
73936;BME280;62287;50.858;0.252;2023-05-12T01:01:34;101690.76;;;12.67;41.42
73936;BME280;62287;50.858;0.252;2023-05-12T01:02:06;101692.23;;;13.60;41.09
73936;BME280;62287;50.858;0.252;2023-05-12T01:02:38;101693.28;;;12.93;41.18
73936;BME280;62287;50.858;0.252;2023-05-12T01:03:09;101692.76;;;12.49;41.25
73936;BME280;62287;50.858;0.252;2023-05-12T01:03:40;101692.95;;;12.51;41.52
73936;BME280;62287;50.858;0.252;2023-05-12T01:04:11;101694.22;;;12.43;41.53
73936;BME280;62287;50.858;0.252;2023-05-12T01:04:42;101693.98;;;12.59;41.39
73936;BME280;62287;50.858;0.252;2023-05-12T01:05:13;101691.89;;;12.27;41.27
73936;BME280;62287;50.858;0.252;2023-05-12T01:05:49;101690.64;;;12.55;41.48
73936;BME280;62287;50.858;0.252;2023-05-12T01:06:25;101690.21;;;13.04;41.10
73936;BME280;62287;50.858;0.252;2023-05-12T01:07:09;101691.89;;;13.38;41.09
73936;BME280;62287;50.858;0.252;2023-05-12T01:07:43;101691.10;;;13.12;41.07
73936;BME280;62287;50.858;0.252;2023-05-12T01:08:16;101692.14;;;13.59;40.80
73936;BME280;62287;50.858;0.252;2023-05-12T01:08:47;101690.43;;;13.28;41.25
73936;BME280;62287;50.858;0.252;2023-05-12T01:09:19;101690.39;;;13.12;41.13
73936;BME280;62287;50.858;0.252;2023-05-12T01:09:53;101689.76;;;12.58;41.36
73936;BME280;62287;50.858;0.252;2023-05-12T01:10:26;101689.53;;;12.64;41.04
73936;BME280;62287;50.858;0.252;2023-05-12T01:10:56;101691.46;;;13.33;41.11
73936;BME280;62287;50.858;0.252;2023-05-12T01:11:27;101691.21;;;12.98;41.24
73936;BME280;62287;50.858;0.252;2023-05-12T01:11:58;101689.49;;;13.46;41.21
73936;BME280;62287;50.858;0.252;2023-05-12T01:12:30;101688.60;;;12.74;41.39
73936;BME280;62287;50.858;0.252;2023-05-12T01:13:08;101689.63;;;13.41;41.40
73936;BME280;62287;50.858;0.252;2023-05-12T01:13:39;101688.90;;;13.10;41.53
73936;BME280;62287;50.858;0.252;2023-05-12T01:14:10;101689.01;;;12.93;41.10
73936;BME280;62287;50.858;0.252;2023-05-12T01:14:41;101687.57;;;12.78;41.79
73936;BME280;62287;50.858;0.252;2023-05-12T01:15:12;101688.32;;;12.29;41.81
73936;BME280;62287;50.858;0.252;2023-05-12T01:15:46;101688.40;;;12.56;41.97
73936;BME280;62287;50.858;0.252;2023-05-12T01:16:19;101688.84;;;11.89;42.35
73936;BME280;62287;50.858;0.252;2023-05-12T01:16:57;101689.39;;;11.73;42.33
73936;BME280;62287;50.858;0.252;2023-05-12T01:17:33;101688.60;;;11.88;42.33
73936;BME280;62287;50.858;0.252;2023-05-12T01:18:06;101691.78;;;11.53;42.91
73936;BME280;62287;50.858;0.252;2023-05-12T01:18:46;101688.79;;;11.64;42.81
73936;BME280;62287;50.858;0.252;2023-05-12T01:19:28;101689.04;;;11.04;42.83
73936;BME280;62287;50.858;0.252;2023-05-12T01:20:11;101690.29;;;11.60;42.68
73936;BME280;62287;50.858;0.252;2023-05-12T01:20:42;101691.29;;;11.61;42.90
73936;BME280;62287;50.858;0.252;2023-05-12T01:21:13;101690.69;;;11.48;42.88
73936;BME280;62287;50.858;0.252;2023-05-12T01:21:44;101692.17;;;11.19;43.23
73936;BME280;62287;50.858;0.252;2023-05-12T01:22:16;101693.71;;;11.14;43.36
73936;BME280;62287;50.858;0.252;2023-05-12T01:22:48;101694.66;;;12.17;43.44
73936;BME280;62287;50.858;0.252;2023-05-12T01:23:33;101692.58;;;12.00;43.28
73936;BME280;62287;50.858;0.252;2023-05-12T01:24:09;101691.86;;;12.76;42.41
73936;BME280;62287;50.858;0.252;2023-05-12T01:24:45;101691.45;;;12.25;42.53
73936;BME280;62287;50.858;0.252;2023-05-12T01:25:18;101692.38;;;12.57;42.36
73936;BME280;62287;50.858;0.252;2023-05-12T01:26:02;101690.70;;;12.28;42.48
73936;BME280;62287;50.858;0.252;2023-05-12T01:26:34;101695.79;;;12.88;41.97
73936;BME280;62287;50.858;0.252;2023-05-12T01:27:06;101694.86;;;12.83;42.10
73936;BME280;62287;50.858;0.252;2023-05-12T01:27:38;101693.83;;;12.19;42.14
73936;BME280;62287;50.858;0.252;2023-05-12T01:28:10;101694.98;;;13.03;41.90
73936;BME280;62287;50.858;0.252;2023-05-12T01:28:42;101695.11;;;13.00;41.88
73936;BME280;62287;50.858;0.252;2023-05-12T01:29:15;101693.66;;;13.38;41.72
73936;BME280;62287;50.858;0.252;2023-05-12T01:29:46;101692.00;;;13.05;41.83
73936;BME280;62287;50.858;0.252;2023-05-12T01:30:18;101692.47;;;13.11;41.56
73936;BME280;62287;50.858;0.252;2023-05-12T01:30:50;101691.83;;;13.91;41.35
73936;BME280;62287;50.858;0.252;2023-05-12T01:31:23;101692.28;;;13.29;41.51
73936;BME280;62287;50.858;0.252;2023-05-12T01:31:54;101692.00;;;13.99;41.37
73936;BME280;62287;50.858;0.252;2023-05-12T01:32:27;101692.32;;;13.50;41.38
73936;BME280;62287;50.858;0.252;2023-05-12T01:32:58;101691.64;;;13.76;41.30
73936;BME280;62287;50.858;0.252;2023-05-12T01:33:30;101688.92;;;13.63;41.32
73936;BME280;62287;50.858;0.252;2023-05-12T01:34:01;101686.54;;;13.47;41.10
73936;BME280;62287;50.858;0.252;2023-05-12T01:34:33;101689.43;;;14.23;40.99
73936;BME280;62287;50.858;0.252;2023-05-12T01:35:05;101687.52;;;14.45;40.90
73936;BME280;62287;50.858;0.252;2023-05-12T01:35:38;101687.83;;;14.16;40.72
73936;BME280;62287;50.858;0.252;2023-05-12T01:36:08;101691.71;;;13.66;40.99
73936;BME280;62287;50.858;0.252;2023-05-12T01:36:40;101692.14;;;13.55;41.02
73936;BME280;62287;50.858;0.252;2023-05-12T01:37:11;101691.56;;;13.19;41.31
73936;BME280;62287;50.858;0.252;2023-05-12T01:37:42;101693.21;;;13.16;41.18
73936;BME280;62287;50.858;0.252;2023-05-12T01:38:18;101690.67;;;13.17;41.23
73936;BME280;62287;50.858;0.252;2023-05-12T01:38:49;101692.00;;;13.55;41.35
73936;BME280;62287;50.858;0.252;2023-05-12T01:39:20;101692.56;;;12.88;41.91
73936;BME280;62287;50.858;0.252;2023-05-12T01:39:52;101692.54;;;12.85;42.02
73936;BME280;62287;50.858;0.252;2023-05-12T01:40:23;101690.56;;;13.13;41.37
73936;BME280;62287;50.858;0.252;2023-05-12T01:40:55;101690.80;;;12.98;41.73
73936;BME280;62287;50.858;0.252;2023-05-12T01:41:26;101691.24;;;13.40;41.73
73936;BME280;62287;50.858;0.252;2023-05-12T01:41:58;101692.96;;;13.47;41.34
73936;BME280;62287;50.858;0.252;2023-05-12T01:42:30;101688.87;;;14.17;41.13
73936;BME280;62287;50.858;0.252;2023-05-12T01:43:42;101692.71;;;13.11;41.41
73936;BME280;62287;50.858;0.252;2023-05-12T01:44:14;101693.25;;;13.23;41.43
73936;BME280;62287;50.858;0.252;2023-05-12T01:44:45;101692.27;;;13.57;41.23
73936;BME280;62287;50.858;0.252;2023-05-12T01:45:17;101688.60;;;13.95;40.92
73936;BME280;62287;50.858;0.252;2023-05-12T01:45:48;101694.22;;;13.47;41.11
73936;BME280;62287;50.858;0.252;2023-05-12T01:46:20;101693.46;;;13.18;41.25
73936;BME280;62287;50.858;0.252;2023-05-12T01:46:51;101692.88;;;12.60;41.88
73936;BME280;62287;50.858;0.252;2023-05-12T01:47:22;101694.68;;;13.07;41.51
73936;BME280;62287;50.858;0.252;2023-05-12T01:47:58;101695.24;;;13.53;41.18
73936;BME280;62287;50.858;0.252;2023-05-12T01:48:29;101693.82;;;13.53;41.05
73936;BME280;62287;50.858;0.252;2023-05-12T01:49:01;101696.13;;;14.13;40.89
73936;BME280;62287;50.858;0.252;2023-05-12T01:49:32;101692.27;;;13.93;40.83
73936;BME280;62287;50.858;0.252;2023-05-12T01:50:03;101691.96;;;14.43;40.78
73936;BME280;62287;50.858;0.252;2023-05-12T01:50:34;101691.68;;;14.38;40.55
73936;BME280;62287;50.858;0.252;2023-05-12T01:51:06;101692.24;;;14.35;40.56
73936;BME280;62287;50.858;0.252;2023-05-12T01:51:37;101693.64;;;13.83;40.72
73936;BME280;62287;50.858;0.252;2023-05-12T01:52:08;101695.04;;;14.13;40.86
73936;BME280;62287;50.858;0.252;2023-05-12T01:52:39;101694.63;;;12.77;41.13
73936;BME280;62287;50.858;0.252;2023-05-12T01:53:11;101692.97;;;12.11;41.73
73936;BME280;62287;50.858;0.252;2023-05-12T01:53:42;101692.41;;;11.58;42.12
73936;BME280;62287;50.858;0.252;2023-05-12T01:54:13;101693.31;;;12.24;42.10
73936;BME280;62287;50.858;0.252;2023-05-12T01:54:44;101694.26;;;12.67;42.28
73936;BME280;62287;50.858;0.252;2023-05-12T01:55:16;101694.72;;;12.66;42.09
73936;BME280;62287;50.858;0.252;2023-05-12T01:55:48;101695.63;;;12.93;41.77
73936;BME280;62287;50.858;0.252;2023-05-12T01:56:19;101697.57;;;12.88;41.83
73936;BME280;62287;50.858;0.252;2023-05-12T01:56:51;101696.68;;;12.92;41.88
73936;BME280;62287;50.858;0.252;2023-05-12T01:57:22;101698.76;;;12.75;41.88
73936;BME280;62287;50.858;0.252;2023-05-12T01:57:53;101696.93;;;12.11;42.22
73936;BME280;62287;50.858;0.252;2023-05-12T01:58:24;101697.21;;;12.80;41.79
73936;BME280;62287;50.858;0.252;2023-05-12T01:58:55;101698.66;;;13.26;41.39
73936;BME280;62287;50.858;0.252;2023-05-12T01:59:27;101699.29;;;12.01;41.63
73936;BME280;62287;50.858;0.252;2023-05-12T02:00:03;101699.72;;;12.67;41.72
73936;BME280;62287;50.858;0.252;2023-05-12T02:00:34;101701.35;;;12.46;42.27
73936;BME280;62287;50.858;0.252;2023-05-12T02:01:05;101700.79;;;11.42;42.49
73936;BME280;62287;50.858;0.252;2023-05-12T02:01:36;101700.38;;;12.18;42.31
73936;BME280;62287;50.858;0.252;2023-05-12T02:02:08;101701.15;;;12.52;42.01
73936;BME280;62287;50.858;0.252;2023-05-12T02:02:40;101702.20;;;12.62;42.19
73936;BME280;62287;50.858;0.252;2023-05-12T02:03:12;101702.11;;;12.48;42.24
73936;BME280;62287;50.858;0.252;2023-05-12T02:03:43;101702.78;;;12.85;42.01
73936;BME280;62287;50.858;0.252;2023-05-12T02:04:14;101699.94;;;12.17;42.04
73936;BME280;62287;50.858;0.252;2023-05-12T02:04:45;101702.60;;;11.48;42.48
73936;BME280;62287;50.858;0.252;2023-05-12T02:05:16;101703.11;;;11.14;42.81
73936;BME280;62287;50.858;0.252;2023-05-12T02:05:47;101701.73;;;12.18;42.54
73936;BME280;62287;50.858;0.252;2023-05-12T02:06:18;101701.88;;;12.15;42.49
73936;BME280;62287;50.858;0.252;2023-05-12T02:06:49;101704.44;;;11.59;42.48
73936;BME280;62287;50.858;0.252;2023-05-12T02:07:20;101703.78;;;12.01;42.76
73936;BME280;62287;50.858;0.252;2023-05-12T02:07:51;101706.87;;;12.19;42.62
73936;BME280;62287;50.858;0.252;2023-05-12T02:08:22;101704.53;;;12.01;42.77
73936;BME280;62287;50.858;0.252;2023-05-12T02:08:53;101705.39;;;12.24;42.57
73936;BME280;62287;50.858;0.252;2023-05-12T02:09:24;101705.55;;;12.15;42.69
73936;BME280;62287;50.858;0.252;2023-05-12T02:09:55;101704.68;;;12.42;42.27
73936;BME280;62287;50.858;0.252;2023-05-12T02:10:26;101703.27;;;12.42;42.33
73936;BME280;62287;50.858;0.252;2023-05-12T02:11:04;101704.79;;;12.63;42.03
73936;BME280;62287;50.858;0.252;2023-05-12T02:11:35;101704.64;;;11.41;42.56
73936;BME280;62287;50.858;0.252;2023-05-12T02:12:07;101705.21;;;11.15;42.97
73936;BME280;62287;50.858;0.252;2023-05-12T02:12:38;101705.93;;;11.29;43.27
73936;BME280;62287;50.858;0.252;2023-05-12T02:13:09;101705.32;;;12.05;42.94
73936;BME280;62287;50.858;0.252;2023-05-12T02:13:40;101707.89;;;12.26;42.90
73936;BME280;62287;50.858;0.252;2023-05-12T02:14:12;101704.65;;;12.60;42.61
73936;BME280;62287;50.858;0.252;2023-05-12T02:14:42;101706.82;;;11.99;42.31
73936;BME280;62287;50.858;0.252;2023-05-12T02:15:15;101708.04;;;11.05;42.91
73936;BME280;62287;50.858;0.252;2023-05-12T02:15:47;101706.39;;;11.59;42.82
73936;BME280;62287;50.858;0.252;2023-05-12T02:16:18;101703.09;;;12.05;42.51
73936;BME280;62287;50.858;0.252;2023-05-12T02:16:50;101706.39;;;11.50;42.54
73936;BME280;62287;50.858;0.252;2023-05-12T02:17:22;101705.72;;;12.05;42.72
73936;BME280;62287;50.858;0.252;2023-05-12T02:17:52;101707.87;;;11.90;42.69
73936;BME280;62287;50.858;0.252;2023-05-12T02:18:24;101707.81;;;11.80;42.80
73936;BME280;62287;50.858;0.252;2023-05-12T02:19:01;101706.42;;;12.20;42.42
73936;BME280;62287;50.858;0.252;2023-05-12T02:19:32;101706.51;;;11.69;42.77
73936;BME280;62287;50.858;0.252;2023-05-12T02:20:04;101705.85;;;12.03;42.87
73936;BME280;62287;50.858;0.252;2023-05-12T02:20:35;101706.97;;;12.06;42.83
73936;BME280;62287;50.858;0.252;2023-05-12T02:21:06;101707.63;;;12.16;42.88
73936;BME280;62287;50.858;0.252;2023-05-12T02:21:37;101706.08;;;12.33;42.75
73936;BME280;62287;50.858;0.252;2023-05-12T02:22:09;101706.00;;;12.58;42.34
73936;BME280;62287;50.858;0.252;2023-05-12T02:22:39;101708.00;;;12.89;42.16
73936;BME280;62287;50.858;0.252;2023-05-12T02:23:11;101706.78;;;12.55;42.26
73936;BME280;62287;50.858;0.252;2023-05-12T02:23:42;101705.84;;;13.21;41.99
73936;BME280;62287;50.858;0.252;2023-05-12T02:24:13;101706.21;;;13.40;41.73
73936;BME280;62287;50.858;0.252;2023-05-12T02:24:44;101705.15;;;13.58;41.49
73936;BME280;62287;50.858;0.252;2023-05-12T02:25:16;101705.58;;;13.64;41.44
73936;BME280;62287;50.858;0.252;2023-05-12T02:25:47;101706.26;;;13.96;41.50
73936;BME280;62287;50.858;0.252;2023-05-12T02:26:19;101707.03;;;13.72;41.30
73936;BME280;62287;50.858;0.252;2023-05-12T02:26:50;101707.92;;;13.95;41.24
73936;BME280;62287;50.858;0.252;2023-05-12T02:27:26;101708.57;;;13.99;41.35
73936;BME280;62287;50.858;0.252;2023-05-12T02:28:02;101708.80;;;13.95;41.34
73936;BME280;62287;50.858;0.252;2023-05-12T02:28:34;101707.22;;;13.97;41.31
73936;BME280;62287;50.858;0.252;2023-05-12T02:29:05;101707.42;;;14.26;41.14
73936;BME280;62287;50.858;0.252;2023-05-12T02:29:35;101706.53;;;14.32;41.06
73936;BME280;62287;50.858;0.252;2023-05-12T02:30:07;101709.95;;;13.89;41.09
73936;BME280;62287;50.858;0.252;2023-05-12T02:30:44;101712.16;;;13.58;41.14
73936;BME280;62287;50.858;0.252;2023-05-12T02:31:15;101711.31;;;13.30;41.68
73936;BME280;62287;50.858;0.252;2023-05-12T02:31:46;101708.50;;;14.39;41.07
73936;BME280;62287;50.858;0.252;2023-05-12T02:32:17;101712.41;;;13.65;41.16
73936;BME280;62287;50.858;0.252;2023-05-12T02:32:48;101711.90;;;13.31;41.12
73936;BME280;62287;50.858;0.252;2023-05-12T02:33:20;101712.18;;;13.69;41.32
73936;BME280;62287;50.858;0.252;2023-05-12T02:33:52;101712.98;;;13.56;41.24
73936;BME280;62287;50.858;0.252;2023-05-12T02:34:23;101712.63;;;13.66;41.30
73936;BME280;62287;50.858;0.252;2023-05-12T02:34:54;101714.29;;;13.74;41.07
73936;BME280;62287;50.858;0.252;2023-05-12T02:35:25;101715.78;;;13.89;41.01
73936;BME280;62287;50.858;0.252;2023-05-12T02:35:56;101710.98;;;14.14;40.83
73936;BME280;62287;50.858;0.252;2023-05-12T02:36:27;101715.16;;;13.48;41.09
73936;BME280;62287;50.858;0.252;2023-05-12T02:37:09;101717.51;;;13.87;40.82
73936;BME280;62287;50.858;0.252;2023-05-12T02:37:39;101718.03;;;13.79;40.78
73936;BME280;62287;50.858;0.252;2023-05-12T02:38:11;101717.18;;;13.59;40.89
73936;BME280;62287;50.858;0.252;2023-05-12T02:38:42;101717.41;;;13.33;41.14
73936;BME280;62287;50.858;0.252;2023-05-12T02:39:18;101718.15;;;13.45;41.05
73936;BME280;62287;50.858;0.252;2023-05-12T02:39:54;101718.37;;;12.72;41.44
73936;BME280;62287;50.858;0.252;2023-05-12T02:40:25;101718.51;;;13.14;41.39
73936;BME280;62287;50.858;0.252;2023-05-12T02:40:58;101721.31;;;12.90;41.48
73936;BME280;62287;50.858;0.252;2023-05-12T02:41:29;101719.71;;;13.00;41.59
73936;BME280;62287;50.858;0.252;2023-05-12T02:42:01;101723.82;;;13.02;41.55
73936;BME280;62287;50.858;0.252;2023-05-12T02:42:32;101724.11;;;12.77;41.68
73936;BME280;62287;50.858;0.252;2023-05-12T02:43:03;101724.14;;;12.21;41.93
73936;BME280;62287;50.858;0.252;2023-05-12T02:43:34;101724.18;;;12.39;41.80
73936;BME280;62287;50.858;0.252;2023-05-12T02:44:05;101724.27;;;11.97;42.12
73936;BME280;62287;50.858;0.252;2023-05-12T02:44:42;101723.40;;;11.87;42.26
73936;BME280;62287;50.858;0.252;2023-05-12T02:45:13;101723.68;;;11.59;42.27
73936;BME280;62287;50.858;0.252;2023-05-12T02:45:44;101723.19;;;11.14;42.63
73936;BME280;62287;50.858;0.252;2023-05-12T02:46:15;101725.91;;;11.25;42.83
73936;BME280;62287;50.858;0.252;2023-05-12T02:46:46;101725.84;;;12.53;42.78
73936;BME280;62287;50.858;0.252;2023-05-12T02:47:17;101728.66;;;12.87;42.39
73936;BME280;62287;50.858;0.252;2023-05-12T02:47:49;101726.82;;;11.83;42.44
73936;BME280;62287;50.858;0.252;2023-05-12T02:48:20;101727.00;;;11.98;42.64